Time;durP1;ratioP1;P1;durP2;ratioP2;P2;SDS_P1;SDS_P2;PMS_P1;PMS_P2;Temp;Humidity;BMP_temperature;BMP_pressure;BME280_temperature;BME280_humidity;BME280_pressure;Samples;Min_cycle;Max_cycle;Signal;HPM_P1;HPM_P2
2023/08/22 00:01:11;;;;;;;5.22;1.48;;;;;;;23.17;97.05;98937.53;4186676;28;20210;-45
2023/08/22 00:03:13;;;;;;;0.55;0.55;;;;;;;23.23;96.90;98941.84;4176466;28;20212;-46
2023/08/22 00:05:15;;;;;;;0.45;0.45;;;;;;;23.12;96.80;98937.63;4169553;28;20226;-46
2023/08/22 00:07:17;;;;;;;4.80;1.17;;;;;;;23.12;97.01;98935.69;4169640;28;20670;-45
2023/08/22 00:09:19;;;;;;;1.30;1.20;;;;;;;23.10;97.56;98931.56;4171468;28;20619;-45
2023/08/22 00:11:21;;;;;;;1.38;0.98;;;;;;;23.10;97.17;98928.75;4172560;28;20266;-45
2023/08/22 00:13:22;;;;;;;0.60;0.60;;;;;;;23.09;96.40;98932.66;4171567;28;20276;-46
2023/08/22 00:15:24;;;;;;;0.75;0.60;;;;;;;23.17;97.16;98929.16;4169851;28;20223;-45
2023/08/22 00:17:26;;;;;;;9.82;1.15;;;;;;;23.11;96.96;98933.19;4169480;28;20199;-44
2023/08/22 00:19:28;;;;;;;0.88;0.73;;;;;;;23.15;97.26;98934.19;4168966;28;20199;-45
2023/08/22 00:21:31;;;;;;;0.50;0.50;;;;;;;23.14;97.02;98938.13;4185457;28;20215;-47
2023/08/22 00:23:33;;;;;;;0.60;0.60;;;;;;;23.08;97.13;98937.44;4175379;28;20605;-46
2023/08/22 00:25:34;;;;;;;0.70;0.70;;;;;;;23.02;97.32;98935.09;4169569;28;20239;-44
2023/08/22 00:27:36;;;;;;;0.70;0.60;;;;;;;22.91;96.81;98933.75;4184544;28;20223;-45
2023/08/22 00:29:39;;;;;;;1.05;1.00;;;;;;;22.96;97.67;98931.63;4173185;28;20287;-46
2023/08/22 00:31:40;;;;;;;0.60;0.60;;;;;;;22.94;97.71;98921.94;4170035;28;20203;-45
2023/08/22 00:33:43;;;;;;;0.50;0.50;;;;;;;22.88;97.46;98920.41;4166673;28;20208;-45
2023/08/22 00:35:45;;;;;;;1.45;1.35;;;;;;;22.83;96.84;98918.59;4158494;28;20228;-45
2023/08/22 00:37:47;;;;;;;0.70;0.70;;;;;;;22.87;97.27;98919.59;4169835;28;20203;-45
2023/08/22 00:39:49;;;;;;;7.80;1.15;;;;;;;22.94;98.12;98916.34;4169981;28;20204;-44
2023/08/22 00:41:50;;;;;;;1.02;0.88;;;;;;;22.98;97.55;98914.56;4170498;28;20627;-48
2023/08/22 00:43:52;;;;;;;0.68;0.68;;;;;;;22.84;97.12;98916.63;4168858;28;20728;-46
2023/08/22 00:45:54;;;;;;;0.90;0.75;;;;;;;22.87;97.63;98907.59;4186037;28;20202;-46
2023/08/22 00:47:56;;;;;;;1.00;0.60;;;;;;;22.87;97.74;98916.81;4173353;28;20729;-53
2023/08/22 00:49:57;;;;;;;0.50;0.50;;;;;;;22.90;97.48;98915.34;4169503;28;20246;-46
2023/08/22 00:52:00;;;;;;;0.80;0.60;;;;;;;22.78;96.89;98915.13;4171226;28;20346;-48
2023/08/22 00:54:02;;;;;;;0.40;0.40;;;;;;;22.87;97.45;98916.81;4168960;28;20564;-50
2023/08/22 00:56:04;;;;;;;0.65;0.60;;;;;;;22.87;97.76;98910.38;4175372;28;20265;-46
2023/08/22 00:58:05;;;;;;;0.98;0.88;;;;;;;22.71;97.45;98909.97;4170175;28;20211;-51
2023/08/22 01:00:10;;;;;;;0.90;0.90;;;;;;;22.70;97.71;98910.31;4156099;28;20208;-52
2023/08/22 01:02:12;;;;;;;1.00;0.70;;;;;;;22.69;97.69;98903.06;4184329;28;20214;-47
2023/08/22 01:04:13;;;;;;;0.40;0.40;;;;;;;22.63;98.31;98898.78;4169373;28;20231;-49
2023/08/22 01:06:39;;;;;;;0.43;0.43;;;;;;;22.67;98.56;98896.97;4171246;28;20678;-47
2023/08/22 01:08:43;;;;;;;1.58;0.68;;;;;;;22.55;98.94;98903.16;4154072;28;20641;-47
2023/08/22 01:10:51;;;;;;;0.50;0.50;;;;;;;22.66;99.02;98895.34;4168643;28;20650;-46
2023/08/22 01:12:56;;;;;;;0.80;0.80;;;;;;;22.51;99.25;98901.31;4170578;28;20214;-47
2023/08/22 01:15:20;;;;;;;0.50;0.50;;;;;;;22.51;99.55;98904.09;4166982;28;20302;-46
2023/08/22 01:17:22;;;;;;;2.13;1.38;;;;;;;22.57;99.75;98905.63;4167216;28;20293;-46
2023/08/22 01:19:25;;;;;;;0.47;0.47;;;;;;;22.58;99.58;98907.28;4170667;28;20199;-46
2023/08/22 01:21:27;;;;;;;0.60;0.60;;;;;;;22.53;99.51;98904.59;4154698;28;20212;-47
2023/08/22 01:23:29;;;;;;;1.17;1.08;;;;;;;22.51;99.66;98907.69;4152391;28;20239;-48
2023/08/22 01:25:31;;;;;;;0.75;0.57;;;;;;;22.42;99.75;98898.47;4184509;28;20222;-49
2023/08/22 01:27:37;;;;;;;0.50;0.50;;;;;;;22.45;100.00;98897.00;4169759;28;20207;-46
2023/08/22 01:29:43;;;;;;;1.25;0.50;;;;;;;22.42;100.00;98901.25;4169001;28;20200;-48
2023/08/22 01:32:05;;;;;;;0.25;0.25;;;;;;;22.54;98.81;98895.91;4151693;28;20745;-47
2023/08/22 01:34:30;;;;;;;0.68;0.68;;;;;;;21.94;100.00;98889.03;4170080;28;20208;-50
2023/08/22 01:36:32;;;;;;;1.25;0.68;;;;;;;21.79;100.00;98880.19;4160071;28;20219;-50
2023/08/22 01:38:35;;;;;;;0.60;0.60;;;;;;;21.72;100.00;98883.38;4168519;28;20237;-47
2023/08/22 01:40:37;;;;;;;0.40;0.40;;;;;;;21.80;100.00;98879.88;4153898;28;20246;-47
2023/08/22 01:42:39;;;;;;;0.60;0.60;;;;;;;21.80;100.00;98881.84;4157199;28;20265;-51
2023/08/22 01:44:41;;;;;;;0.93;0.93;;;;;;;21.80;100.00;98884.63;4154447;28;20228;-46
2023/08/22 01:46:43;;;;;;;1.55;1.33;;;;;;;21.83;100.00;98884.81;4175255;28;20272;-47
2023/08/22 01:48:44;;;;;;;0.95;0.80;;;;;;;21.87;100.00;98879.44;4170285;28;20207;-46
2023/08/22 01:50:46;;;;;;;0.65;0.65;;;;;;;21.90;100.00;98873.25;4176352;28;20204;-50
2023/08/22 01:52:48;;;;;;;0.80;0.80;;;;;;;21.92;100.00;98876.53;4168537;28;20208;-48
2023/08/22 01:54:50;;;;;;;1.40;1.00;;;;;;;21.96;100.00;98871.97;4168137;28;20231;-50
2023/08/22 01:56:52;;;;;;;0.40;0.40;;;;;;;21.90;100.00;98867.69;4171138;28;20204;-51
2023/08/22 01:58:54;;;;;;;0.75;0.57;;;;;;;21.84;100.00;98863.34;4169123;28;20207;-47
2023/08/22 02:00:55;;;;;;;0.60;0.60;;;;;;;21.86;100.00;98872.22;4174219;28;20207;-46
2023/08/22 02:02:57;;;;;;;0.50;0.50;;;;;;;21.89;100.00;98868.78;4170789;28;20658;-47
2023/08/22 02:04:59;;;;;;;0.50;0.50;;;;;;;21.86;100.00;98866.66;4185212;28;20670;-48
2023/08/22 02:07:00;;;;;;;0.85;0.77;;;;;;;21.82;100.00;98871.19;4167756;28;20219;-48
2023/08/22 02:09:03;;;;;;;0.65;0.65;;;;;;;21.82;100.00;98879.53;4167788;28;20235;-50
2023/08/22 02:11:05;;;;;;;0.70;0.60;;;;;;;21.91;100.00;98880.47;4169470;28;20659;-49
2023/08/22 02:13:07;;;;;;;0.50;0.40;;;;;;;21.97;100.00;98884.78;4170837;28;20211;-48
2023/08/22 02:15:09;;;;;;;0.65;0.43;;;;;;;21.96;100.00;98877.53;4182748;28;20229;-49
2023/08/22 02:17:11;;;;;;;0.63;0.63;;;;;;;21.84;100.00;98880.09;4186468;28;20199;-48
2023/08/22 02:19:13;;;;;;;0.70;0.70;;;;;;;21.93;100.00;98873.44;4168126;28;20689;-51
2023/08/22 02:21:16;;;;;;;1.77;0.85;;;;;;;21.96;100.00;98869.19;4169665;28;20218;-49
2023/08/22 02:23:18;;;;;;;1.10;0.90;;;;;;;21.93;100.00;98861.47;4173133;28;20209;-47
2023/08/22 02:25:20;;;;;;;0.90;0.80;;;;;;;21.39;100.00;98859.59;4149604;28;20618;-47
2023/08/22 02:27:22;;;;;;;1.02;1.02;;;;;;;21.31;100.00;98862.31;4185069;28;20261;-48
2023/08/22 02:29:23;;;;;;;0.82;0.82;;;;;;;21.13;100.00;98866.00;4157094;28;20290;-48
2023/08/22 02:31:25;;;;;;;0.77;0.77;;;;;;;21.22;100.00;98872.50;4156404;28;20200;-51
2023/08/22 02:33:27;;;;;;;0.75;0.75;;;;;;;21.33;100.00;98868.38;4169931;28;20211;-48
2023/08/22 02:35:29;;;;;;;1.75;1.17;;;;;;;21.44;100.00;98869.81;4174756;28;20230;-47
2023/08/22 02:37:30;;;;;;;0.80;0.80;;;;;;;21.51;100.00;98859.06;4174099;28;20237;-47
2023/08/22 02:39:32;;;;;;;1.40;1.30;;;;;;;21.45;100.00;98874.25;4168166;28;20201;-48
2023/08/22 02:41:34;;;;;;;1.05;1.02;;;;;;;21.49;100.00;98866.91;4184728;28;20550;-48
2023/08/22 02:43:36;;;;;;;0.68;0.68;;;;;;;21.55;100.00;98866.50;4184861;28;20207;-48
2023/08/22 02:45:42;;;;;;;0.98;0.93;;;;;;;21.54;100.00;98864.84;4168576;28;20238;-47
2023/08/22 02:47:44;;;;;;;0.60;0.60;;;;;;;21.44;100.00;98870.63;4151717;28;20204;-53
2023/08/22 02:49:46;;;;;;;0.57;0.57;;;;;;;21.39;100.00;98869.91;4166613;28;20230;-51
2023/08/22 02:51:48;;;;;;;0.75;0.60;;;;;;;21.36;100.00;98873.31;4167168;28;20208;-47
2023/08/22 02:53:49;;;;;;;1.40;0.43;;;;;;;21.38;100.00;98877.44;4167413;28;20204;-49
2023/08/22 02:55:51;;;;;;;1.13;0.70;;;;;;;21.41;100.00;98876.00;4168356;28;20223;-48
2023/08/22 02:57:53;;;;;;;0.75;0.75;;;;;;;21.45;100.00;98871.47;4183251;28;20673;-54
2023/08/22 02:59:55;;;;;;;1.33;1.23;;;;;;;21.42;100.00;98872.06;4182294;28;20198;-50
2023/08/22 03:01:56;;;;;;;0.85;0.80;;;;;;;21.39;100.00;98873.50;4167843;28;20210;-47
2023/08/22 03:03:58;;;;;;;1.05;0.93;;;;;;;21.40;100.00;98877.13;4185323;28;20213;-47
2023/08/22 03:06:00;;;;;;;1.10;0.65;;;;;;;21.38;100.00;98882.19;4167746;28;20200;-48
2023/08/22 03:08:02;;;;;;;3.25;0.80;;;;;;;21.40;100.00;98879.91;4174261;28;20208;-47
2023/08/22 03:10:05;;;;;;;1.05;0.85;;;;;;;21.46;100.00;98879.50;4168915;28;20333;-47
2023/08/22 03:12:07;;;;;;;0.55;0.55;;;;;;;21.46;100.00;98884.25;4187255;28;20206;-47
2023/08/22 03:14:09;;;;;;;1.15;0.73;;;;;;;21.40;100.00;98885.50;4169248;28;20207;-48
2023/08/22 03:16:10;;;;;;;1.15;1.02;;;;;;;21.35;100.00;98885.59;4174014;28;20215;-49
2023/08/22 03:18:12;;;;;;;0.57;0.57;;;;;;;21.40;100.00;98886.31;4175757;28;20612;-47
2023/08/22 03:20:14;;;;;;;1.10;1.00;;;;;;;21.39;100.00;98894.97;4174802;28;20215;-48
2023/08/22 03:22:16;;;;;;;1.13;0.75;;;;;;;21.32;100.00;98889.00;4157812;28;20204;-48
2023/08/22 03:24:18;;;;;;;0.60;0.60;;;;;;;21.27;100.00;98881.59;4166934;28;20680;-48
2023/08/22 03:26:20;;;;;;;0.50;0.50;;;;;;;21.25;100.00;98883.03;4164589;28;20308;-49
2023/08/22 03:28:22;;;;;;;0.50;0.32;;;;;;;21.29;100.00;98884.03;4172013;28;20732;-49
2023/08/22 03:30:23;;;;;;;4.03;0.90;;;;;;;21.17;100.00;98875.41;4167784;28;20222;-47
2023/08/22 03:32:25;;;;;;;0.52;0.52;;;;;;;21.16;100.00;98882.09;4170287;28;20600;-45
2023/08/22 03:34:27;;;;;;;0.93;0.90;;;;;;;21.13;100.00;98885.50;4167553;28;20227;-45
2023/08/22 03:36:28;;;;;;;0.65;0.65;;;;;;;21.08;100.00;98883.66;4182113;28;20567;-48
2023/08/22 03:38:30;;;;;;;1.00;1.00;;;;;;;21.11;100.00;98882.22;4182985;28;20204;-51
2023/08/22 03:40:32;;;;;;;1.42;1.30;;;;;;;21.08;100.00;98878.09;4182246;28;20241;-48
2023/08/22 03:42:34;;;;;;;0.40;0.40;;;;;;;21.20;100.00;98880.34;4181902;28;20199;-50
2023/08/22 03:44:35;;;;;;;0.80;0.68;;;;;;;21.13;100.00;98879.94;4164468;28;20227;-49
2023/08/22 03:46:37;;;;;;;0.75;0.75;;;;;;;21.00;100.00;98877.97;4170160;28;20208;-47
2023/08/22 03:48:40;;;;;;;0.88;0.80;;;;;;;20.99;100.00;98884.69;4170288;28;20227;-47
2023/08/22 03:50:42;;;;;;;1.08;0.63;;;;;;;21.06;100.00;98882.31;4168533;28;20270;-48
2023/08/22 03:52:44;;;;;;;0.95;0.93;;;;;;;20.80;100.00;98876.41;4184801;28;20776;-48
2023/08/22 03:54:46;;;;;;;0.63;0.55;;;;;;;20.51;100.00;98878.59;4166995;28;20282;-47
2023/08/22 03:56:47;;;;;;;1.30;1.20;;;;;;;20.62;100.00;98870.88;4183056;28;20657;-49
2023/08/22 03:58:49;;;;;;;0.52;0.50;;;;;;;20.54;100.00;98871.59;4165523;28;20291;-50
2023/08/22 04:01:02;;;;;;;2.22;1.30;;;;;;;20.58;100.00;98869.88;4167606;28;20262;-48
2023/08/22 04:03:04;;;;;;;0.82;0.82;;;;;;;20.66;100.00;98877.50;4168998;28;20257;-50
2023/08/22 04:05:06;;;;;;;0.70;0.70;;;;;;;20.67;100.00;98881.91;4173507;28;20226;-48
2023/08/22 04:07:08;;;;;;;0.80;0.80;;;;;;;20.70;100.00;98879.34;4168395;28;20212;-48
2023/08/22 04:09:10;;;;;;;0.75;0.73;;;;;;;20.67;100.00;98879.97;4170192;28;20226;-50
2023/08/22 04:11:11;;;;;;;2.13;0.80;;;;;;;20.72;100.00;98884.63;4169796;28;20207;-46
2023/08/22 04:13:13;;;;;;;0.93;0.77;;;;;;;20.74;100.00;98883.19;4190704;28;20231;-54
2023/08/22 04:15:15;;;;;;;0.80;0.50;;;;;;;20.77;100.00;98884.53;4177683;28;20762;-52
2023/08/22 04:17:17;;;;;;;1.27;1.23;;;;;;;20.75;100.00;98884.00;4168044;28;20254;-50
2023/08/22 04:19:19;;;;;;;1.55;0.60;;;;;;;20.74;100.00;98887.91;4174778;28;20641;-47
2023/08/22 04:21:21;;;;;;;0.70;0.70;;;;;;;20.73;100.00;98887.09;4171197;28;20683;-52
2023/08/22 04:23:23;;;;;;;1.35;0.70;;;;;;;20.71;100.00;98888.53;4171559;28;20246;-47
2023/08/22 04:25:25;;;;;;;8.07;0.85;;;;;;;20.69;100.00;98886.06;4171268;28;20277;-48
2023/08/22 04:27:28;;;;;;;0.80;0.80;;;;;;;20.70;100.00;98886.88;4172623;28;20204;-50
2023/08/22 04:29:30;;;;;;;0.50;0.50;;;;;;;20.65;100.00;98884.19;4170146;28;20256;-50
2023/08/22 04:31:32;;;;;;;0.50;0.50;;;;;;;20.65;100.00;98889.75;4171466;28;20523;-50
2023/08/22 04:33:34;;;;;;;0.80;0.80;;;;;;;20.67;100.00;98895.81;4173561;28;20200;-47
2023/08/22 04:35:37;;;;;;;0.75;0.75;;;;;;;20.63;100.00;98887.28;4176746;28;20233;-47
2023/08/22 04:37:39;;;;;;;0.90;0.90;;;;;;;20.61;100.00;98888.72;4186071;28;20752;-47
2023/08/22 04:39:41;;;;;;;0.60;0.60;;;;;;;20.57;100.00;98888.50;4169047;28;20211;-48
2023/08/22 04:41:43;;;;;;;0.63;0.52;;;;;;;20.53;100.00;98897.75;4168600;28;20316;-47
2023/08/22 04:43:45;;;;;;;1.02;0.52;;;;;;;20.48;100.00;98895.91;4170358;28;20208;-48
2023/08/22 04:45:50;;;;;;;0.80;0.80;;;;;;;20.51;100.00;98886.13;4172587;28;20223;-47
2023/08/22 04:47:53;;;;;;;4.32;0.82;;;;;;;20.50;100.00;98899.19;4172378;28;20699;-48
2023/08/22 04:49:55;;;;;;;0.98;0.90;;;;;;;20.50;100.00;98890.03;4170596;28;20253;-50
2023/08/22 04:51:57;;;;;;;1.45;1.15;;;;;;;20.49;100.00;98894.75;4169083;28;20644;-47
2023/08/22 04:53:59;;;;;;;0.68;0.63;;;;;;;20.51;100.00;98894.47;4168269;28;20691;-52
2023/08/22 04:56:00;;;;;;;0.98;0.98;;;;;;;20.54;100.00;98899.41;4170308;28;20257;-49
2023/08/22 04:58:03;;;;;;;1.38;0.75;;;;;;;20.53;100.00;98894.97;4185220;28;20207;-47
2023/08/22 05:00:08;;;;;;;1.88;0.90;;;;;;;20.49;100.00;98900.31;4168737;28;20318;-48
2023/08/22 05:02:09;;;;;;;0.75;0.70;;;;;;;20.57;100.00;98898.81;4184574;28;20214;-47
2023/08/22 05:04:11;;;;;;;0.50;0.50;;;;;;;20.48;100.00;98901.47;4166649;28;20212;-48
2023/08/22 05:06:13;;;;;;;5.55;0.77;;;;;;;20.42;100.00;98896.28;4169115;28;20253;-46
2023/08/22 05:08:15;;;;;;;1.10;1.05;;;;;;;20.44;100.00;98899.59;4187121;28;20222;-48
2023/08/22 05:10:16;;;;;;;0.60;0.60;;;;;;;20.44;100.00;98894.03;4176317;28;20231;-52
2023/08/22 05:12:18;;;;;;;2.10;0.80;;;;;;;20.46;100.00;98900.09;4188037;28;20211;-48
2023/08/22 05:14:21;;;;;;;0.60;0.60;;;;;;;20.49;100.00;98899.47;4177915;28;20228;-51
2023/08/22 05:16:23;;;;;;;0.80;0.50;;;;;;;20.46;100.00;98897.31;4170006;28;20338;-49
2023/08/22 05:18:25;;;;;;;1.60;0.80;;;;;;;20.45;100.00;98895.69;4168529;28;20569;-47
2023/08/22 05:20:27;;;;;;;7.85;1.05;;;;;;;20.47;100.00;98901.75;4182161;28;20203;-47
2023/08/22 05:22:29;;;;;;;9.00;1.00;;;;;;;20.47;100.00;98898.97;4159514;28;20208;-50
2023/08/22 05:24:31;;;;;;;0.80;0.50;;;;;;;20.53;100.00;98909.72;4169320;28;20643;-49
2023/08/22 05:26:33;;;;;;;2.58;1.35;;;;;;;20.56;100.00;98916.59;4167367;28;20218;-52
2023/08/22 05:28:35;;;;;;;1.05;0.95;;;;;;;20.59;100.00;98913.22;4170091;28;20215;-47
2023/08/22 05:30:39;;;;;;;0.70;0.70;;;;;;;20.71;100.00;98905.22;4182712;28;21057;-46
2023/08/22 05:32:41;;;;;;;1.40;1.05;;;;;;;20.74;100.00;98912.94;4180388;28;20207;-48
2023/08/22 05:34:43;;;;;;;1.25;0.68;;;;;;;20.78;100.00;98914.00;4166040;28;20654;-52
2023/08/22 05:36:45;;;;;;;10.98;1.15;;;;;;;20.87;100.00;98914.94;4180462;28;20200;-46
2023/08/22 05:38:47;;;;;;;1.48;1.38;;;;;;;20.89;100.00;98912.69;4170151;28;20230;-49
2023/08/22 05:40:48;;;;;;;1.05;0.77;;;;;;;20.91;100.00;98907.66;4183338;28;20204;-46
2023/08/22 05:42:52;;;;;;;1.25;1.13;;;;;;;20.80;100.00;98908.94;4168532;28;21673;-47
2023/08/22 05:44:54;;;;;;;1.02;0.73;;;;;;;20.83;100.00;98905.53;4183352;28;20659;-48
2023/08/22 05:46:55;;;;;;;2.20;1.20;;;;;;;20.86;100.00;98910.50;4184848;28;21448;-46
2023/08/22 05:48:57;;;;;;;1.10;1.00;;;;;;;20.96;100.00;98907.53;4169621;28;20207;-47
2023/08/22 05:51:01;;;;;;;0.80;0.80;;;;;;;20.97;100.00;98915.59;4170336;28;20666;-46
2023/08/22 05:53:03;;;;;;;0.80;0.80;;;;;;;21.04;100.00;98918.00;4168413;28;20212;-47
2023/08/22 05:55:06;;;;;;;1.38;1.08;;;;;;;21.14;100.00;98917.78;4182144;28;20231;-47
2023/08/22 05:57:08;;;;;;;2.70;1.73;;;;;;;21.30;100.00;98919.13;4174245;28;20673;-47
2023/08/22 05:59:10;;;;;;;3.70;1.10;;;;;;;21.43;100.00;98918.31;4183178;28;20658;-47
2023/08/22 06:01:13;;;;;;;1.70;1.60;;;;;;;21.54;100.00;98914.16;4170461;28;20208;-49
2023/08/22 06:03:15;;;;;;;1.13;1.02;;;;;;;21.84;100.00;98924.66;4185079;28;20234;-48
2023/08/22 06:05:16;;;;;;;0.77;0.77;;;;;;;22.06;100.00;98919.97;4187084;28;20230;-47
2023/08/22 06:07:18;;;;;;;1.67;0.63;;;;;;;22.27;100.00;98923.06;4169583;28;20200;-46
2023/08/22 06:09:20;;;;;;;0.98;0.98;;;;;;;22.40;100.00;98925.00;4183804;28;20798;-47
2023/08/22 06:11:22;;;;;;;1.00;1.00;;;;;;;22.62;100.00;98925.84;4171180;28;22266;-47
2023/08/22 06:13:24;;;;;;;0.60;0.60;;;;;;;22.79;100.00;98930.72;4167696;28;20202;-47
2023/08/22 06:15:26;;;;;;;1.35;0.68;;;;;;;23.00;100.00;98932.66;4184585;28;20226;-47
2023/08/22 06:17:28;;;;;;;1.25;0.60;;;;;;;23.10;99.71;98939.94;4167200;28;20212;-47
2023/08/22 06:19:29;;;;;;;1.00;0.70;;;;;;;23.26;98.68;98930.00;4168294;28;20691;-49
2023/08/22 06:21:31;;;;;;;1.27;1.17;;;;;;;23.13;96.91;98928.09;4167636;28;20214;-52
2023/08/22 06:23:33;;;;;;;1.00;0.90;;;;;;;23.51;98.71;98932.06;4165604;28;20580;-50
2023/08/22 06:25:35;;;;;;;1.30;0.80;;;;;;;23.73;95.95;98923.59;4166203;28;20234;-52
2023/08/22 06:27:37;;;;;;;1.20;1.10;;;;;;;23.89;96.87;98930.41;4184575;28;20225;-46
2023/08/22 06:29:39;;;;;;;0.75;0.73;;;;;;;23.84;93.75;98926.56;4169876;28;20269;-46
2023/08/22 06:31:40;;;;;;;1.83;1.50;;;;;;;24.02;95.10;98931.09;4170189;28;20206;-49
2023/08/22 06:33:42;;;;;;;1.25;0.95;;;;;;;23.92;96.96;98934.19;4171440;28;20211;-47
2023/08/22 06:35:47;;;;;;;1.77;0.95;;;;;;;24.57;91.59;98929.28;4168512;28;20224;-48
2023/08/22 06:37:50;;;;;;;0.73;0.73;;;;;;;24.56;91.33;98932.41;4168015;28;20211;-50
2023/08/22 06:39:52;;;;;;;0.60;0.60;;;;;;;24.63;90.45;98933.56;4167769;28;20235;-51
2023/08/22 06:41:54;;;;;;;1.02;0.90;;;;;;;24.58;91.31;98933.75;4167076;28;20257;-50
2023/08/22 06:43:56;;;;;;;1.27;1.17;;;;;;;24.39;91.46;98927.63;4166861;28;20820;-48
2023/08/22 06:45:58;;;;;;;1.63;0.70;;;;;;;24.22;90.98;98943.59;4182521;28;20668;-51
2023/08/22 06:48:00;;;;;;;1.50;1.40;;;;;;;24.40;91.27;98934.84;4151216;28;20700;-50
2023/08/22 06:50:03;;;;;;;1.48;1.38;;;;;;;24.90;88.98;98935.16;4167575;28;20227;-48
2023/08/22 06:52:05;;;;;;;1.30;0.82;;;;;;;24.78;90.15;98941.44;4166606;28;20307;-46
2023/08/22 06:54:09;;;;;;;2.17;1.58;;;;;;;25.44;86.10;98937.97;4168681;28;20225;-49
2023/08/22 06:56:11;;;;;;;0.90;0.90;;;;;;;25.19;86.44;98941.66;4186264;28;20211;-48
2023/08/22 06:58:13;;;;;;;0.77;0.70;;;;;;;24.74;89.01;98929.25;4172214;28;20320;-47
2023/08/22 07:00:16;;;;;;;0.80;0.80;;;;;;;25.10;87.93;98935.28;4166464;28;20211;-46
2023/08/22 07:02:18;;;;;;;2.70;1.13;;;;;;;25.23;88.18;98931.47;4166349;28;20211;-48
2023/08/22 07:04:20;;;;;;;2.15;1.30;;;;;;;25.40;85.54;98937.00;4166025;28;20571;-47
2023/08/22 07:06:22;;;;;;;11.70;1.33;;;;;;;26.09;82.35;98937.47;4171062;28;20208;-50
2023/08/22 07:08:24;;;;;;;1.15;1.00;;;;;;;25.90;83.35;98923.91;4153251;28;20218;-47
2023/08/22 07:10:26;;;;;;;1.13;1.02;;;;;;;25.89;82.18;98922.25;4168804;28;20227;-47
2023/08/22 07:12:28;;;;;;;1.50;1.10;;;;;;;26.22;82.88;98931.59;4169701;28;20224;-50
2023/08/22 07:14:29;;;;;;;0.60;0.60;;;;;;;26.33;79.29;98924.41;4157704;28;20231;-47
2023/08/22 07:16:31;;;;;;;1.70;1.60;;;;;;;26.19;80.65;98932.25;4167275;28;20223;-48
2023/08/22 07:18:33;;;;;;;5.70;1.10;;;;;;;26.68;78.41;98922.97;4167952;28;20215;-47
2023/08/22 07:20:35;;;;;;;3.92;0.70;;;;;;;26.79;76.73;98929.78;4185108;28;20229;-47
2023/08/22 07:22:37;;;;;;;0.80;0.40;;;;;;;26.96;76.37;98924.00;4170548;28;20223;-48
2023/08/22 07:24:39;;;;;;;0.90;0.70;;;;;;;27.19;76.34;98932.88;4155717;28;20232;-48
2023/08/22 07:26:41;;;;;;;0.70;0.70;;;;;;;26.97;75.48;98939.69;4167523;28;20245;-49
2023/08/22 07:28:42;;;;;;;1.52;0.80;;;;;;;27.42;75.64;98932.09;4169635;28;20215;-47
2023/08/22 07:30:48;;;;;;;2.17;0.63;;;;;;;27.86;73.68;98933.97;4164772;28;20696;-51
2023/08/22 07:32:50;;;;;;;1.25;0.90;;;;;;;27.79;73.47;98930.94;4168412;28;20205;-47
2023/08/22 07:34:52;;;;;;;0.80;0.80;;;;;;;28.46;70.63;98933.91;4163576;28;20223;-47
2023/08/22 07:36:54;;;;;;;0.88;0.88;;;;;;;28.59;70.57;98937.50;4153207;28;20211;-47
2023/08/22 07:38:56;;;;;;;1.10;0.80;;;;;;;28.57;71.01;98945.47;4169346;28;20193;-46
2023/08/22 07:40:58;;;;;;;1.80;1.52;;;;;;;29.10;68.49;98931.78;4181717;28;20290;-51
2023/08/22 07:43:00;;;;;;;0.98;0.93;;;;;;;28.84;69.28;98933.44;4171080;28;20583;-46
2023/08/22 07:45:03;;;;;;;2.25;0.80;;;;;;;28.64;67.52;98931.63;4168958;28;20229;-47
2023/08/22 07:47:05;;;;;;;7.20;0.98;;;;;;;27.67;71.93;98939.38;4166302;28;20229;-53
2023/08/22 07:49:07;;;;;;;6.53;0.70;;;;;;;28.33;71.50;98935.06;4170626;28;21052;-49
2023/08/22 07:51:10;;;;;;;0.85;0.82;;;;;;;28.57;68.55;98940.69;4171175;28;20226;-51
2023/08/22 07:53:11;;;;;;;0.50;0.50;;;;;;;29.29;67.07;98943.19;4168415;28;20208;-51
2023/08/22 07:55:13;;;;;;;0.73;0.73;;;;;;;29.29;66.71;98940.34;4173152;28;20235;-51
2023/08/22 07:57:15;;;;;;;0.85;0.70;;;;;;;29.09;67.41;98941.41;4170963;28;20234;-50
2023/08/22 07:59:20;;;;;;;0.90;0.90;;;;;;;29.27;66.98;98931.44;4169771;28;20235;-50
2023/08/22 08:01:21;;;;;;;0.50;0.50;;;;;;;28.41;67.39;98942.63;4167253;28;20207;-49
2023/08/22 08:03:23;;;;;;;1.02;0.82;;;;;;;29.32;66.95;98942.44;4167478;28;20212;-50
2023/08/22 08:05:26;;;;;;;1.10;1.00;;;;;;;29.46;65.97;98942.81;4153191;28;20302;-46
2023/08/22 08:07:27;;;;;;;1.20;0.77;;;;;;;29.76;64.80;98944.03;4169588;28;20212;-48
2023/08/22 08:09:29;;;;;;;1.05;0.70;;;;;;;28.13;66.71;98952.94;4170588;28;20207;-48
2023/08/22 08:11:36;;;;;;;1.13;0.63;;;;;;;28.84;66.20;98939.88;4183183;28;20217;-49
2023/08/22 08:13:38;;;;;;;4.55;0.70;;;;;;;28.72;66.00;98942.72;4169337;28;20207;-46
2023/08/22 08:15:41;;;;;;;1.67;0.98;;;;;;;29.53;64.68;98945.84;4157520;28;20228;-52
2023/08/22 08:17:43;;;;;;;0.88;0.60;;;;;;;29.36;62.17;98934.06;4183074;28;20294;-47
2023/08/22 08:19:45;;;;;;;0.52;0.52;;;;;;;29.37;63.37;98941.34;4186229;28;20207;-49
2023/08/22 08:21:47;;;;;;;3.70;0.80;;;;;;;29.50;62.07;98946.56;4169912;28;20586;-48
2023/08/22 08:23:48;;;;;;;0.90;0.60;;;;;;;28.92;59.16;98936.06;4167291;28;20257;-54
2023/08/22 08:25:50;;;;;;;0.20;0.20;;;;;;;28.68;59.09;98941.00;4182603;28;20246;-48
2023/08/22 08:27:52;;;;;;;0.47;0.45;;;;;;;28.95;61.40;98940.19;4182837;28;20685;-47
2023/08/22 08:29:59;;;;;;;0.40;0.40;;;;;;;29.10;58.92;98933.75;4170781;28;20211;-46
2023/08/22 08:32:01;;;;;;;1.88;0.40;;;;;;;29.26;60.04;98945.91;4169053;28;20695;-46
2023/08/22 08:34:03;;;;;;;0.50;0.50;;;;;;;29.22;58.66;98934.53;4177905;28;20254;-46
2023/08/22 08:36:06;;;;;;;0.40;0.40;;;;;;;29.24;56.62;98937.00;4171361;28;20208;-46
2023/08/22 08:38:08;;;;;;;0.20;0.20;;;;;;;28.77;56.07;98945.31;4187424;28;20206;-46
2023/08/22 08:40:10;;;;;;;0.35;0.20;;;;;;;28.78;52.46;98946.94;4171185;28;20270;-45
2023/08/22 08:42:13;;;;;;;0.40;0.40;;;;;;;28.80;53.53;98944.59;4173130;28;20214;-46
2023/08/22 08:44:16;;;;;;;0.25;0.25;;;;;;;28.77;54.42;98939.66;4172918;28;20285;-46
2023/08/22 08:46:25;;;;;;;0.20;0.20;;;;;;;29.37;54.93;98950.63;4171695;28;20195;-51
2023/08/22 08:48:29;;;;;;;0.47;0.40;;;;;;;29.42;54.87;98949.56;4172427;28;20324;-48
2023/08/22 08:50:32;;;;;;;6.03;0.20;;;;;;;29.36;52.13;98951.81;4171762;28;20223;-49
2023/08/22 08:52:34;;;;;;;0.25;0.25;;;;;;;28.92;53.34;98941.69;4174088;28;20532;-47
2023/08/22 08:54:36;;;;;;;0.52;0.40;;;;;;;29.00;55.04;98949.22;4169498;28;20223;-47
2023/08/22 08:56:38;;;;;;;0.20;0.20;;;;;;;29.43;54.71;98957.66;4172641;28;20208;-53
2023/08/22 08:58:40;;;;;;;0.20;0.13;;;;;;;29.16;56.09;98952.88;4174256;28;20204;-44
2023/08/22 09:00:42;;;;;;;0.93;0.40;;;;;;;29.06;54.03;98952.59;4172652;28;20206;-47
2023/08/22 09:02:44;;;;;;;0.20;0.20;;;;;;;29.68;55.22;98953.50;4170381;28;20404;-45
2023/08/22 09:04:46;;;;;;;1.17;0.88;;;;;;;29.39;55.05;98951.09;4173855;28;22006;-49
2023/08/22 09:06:56;;;;;;;0.28;0.28;;;;;;;29.97;54.27;98958.66;4171443;28;20223;-48
2023/08/22 09:09:08;;;;;;;1.05;0.50;;;;;;;30.06;54.98;98942.34;4169454;28;20653;-48
2023/08/22 09:11:10;;;;;;;0.30;0.30;;;;;;;30.68;51.42;98942.22;4169963;28;20230;-45
2023/08/22 09:13:12;;;;;;;0.10;0.10;;;;;;;30.40;51.67;98938.75;4173709;28;20866;-46
2023/08/22 09:15:18;;;;;;;0.45;0.30;;;;;;;30.41;49.00;98946.03;4172272;28;20298;-49
2023/08/22 09:17:20;;;;;;;0.25;0.25;;;;;;;30.93;49.63;98943.56;4171162;28;20204;-45
2023/08/22 09:19:22;;;;;;;7.13;0.65;;;;;;;29.91;47.45;98942.41;4171376;28;20199;-44
2023/08/22 09:21:29;;;;;;;0.47;0.40;;;;;;;29.63;49.02;98939.66;4178413;28;20221;-46
2023/08/22 09:23:34;;;;;;;1.08;0.50;;;;;;;30.15;48.57;98930.88;4171404;28;20200;-45
2023/08/22 09:25:39;;;;;;;9.23;1.23;;;;;;;30.21;49.23;98938.72;4176041;28;20678;-48
2023/08/22 09:27:41;;;;;;;0.20;0.20;;;;;;;29.78;47.34;98938.03;4187488;28;20240;-48
2023/08/22 09:29:45;;;;;;;0.40;0.40;;;;;;;29.21;47.84;98938.53;4172191;28;20226;-48
2023/08/22 09:31:47;;;;;;;0.20;0.20;;;;;;;29.08;49.89;98939.78;4172145;28;20231;-45
2023/08/22 09:33:49;;;;;;;0.50;0.32;;;;;;;29.79;51.82;98946.13;4172380;28;20294;-45